sensor_id;sensor_type;location;lat;lon;timestamp;temperature;humidity
49901;DHT22;35789;48.414;12.768;2022-09-13T00:00:00;10.7;99.9
49901;DHT22;35789;48.414;12.768;2022-09-13T00:05:00;10.7;99.9
49901;DHT22;35789;48.414;12.768;2022-09-13T00:10:00;10.8;99.9
49901;DHT22;35789;48.414;12.768;2022-09-13T00:15:00;10.8;99.9
49901;DHT22;35789;48.414;12.768;2022-09-13T00:20:00;10.8;99.9
49901;DHT22;35789;48.414;12.768;2022-09-13T00:25:00;10.7;99.9
49901;DHT22;35789;48.414;12.768;2022-09-13T00:30:00;10.7;99.9
49901;DHT22;35789;48.414;12.768;2022-09-13T00:35:00;10.4;99.9
49901;DHT22;35789;48.414;12.768;2022-09-13T00:40:00;10.4;99.9
49901;DHT22;35789;48.414;12.768;2022-09-13T00:45:00;10.4;99.9
49901;DHT22;35789;48.414;12.768;2022-09-13T00:50:01;10.4;99.9
49901;DHT22;35789;48.414;12.768;2022-09-13T00:55:00;10.6;99.9
49901;DHT22;35789;48.414;12.768;2022-09-13T01:00:02;10.6;99.9
49901;DHT22;35789;48.414;12.768;2022-09-13T01:05:00;10.5;99.9
49901;DHT22;35789;48.414;12.768;2022-09-13T01:10:01;10.2;99.9
49901;DHT22;35789;48.414;12.768;2022-09-13T01:15:00;10.1;99.9
49901;DHT22;35789;48.414;12.768;2022-09-13T01:20:00;10.1;99.9
49901;DHT22;35789;48.414;12.768;2022-09-13T01:35:03;9.9;99.9
49901;DHT22;35789;48.414;12.768;2022-09-13T01:40:02;9.9;99.9
49901;DHT22;35789;48.414;12.768;2022-09-13T01:45:02;10.0;99.9
49901;DHT22;35789;48.414;12.768;2022-09-13T01:50:04;10.0;99.9
49901;DHT22;35789;48.414;12.768;2022-09-13T01:55:01;9.8;99.9
49901;DHT22;35789;48.414;12.768;2022-09-13T02:00:02;9.7;99.9
49901;DHT22;35789;48.414;12.768;2022-09-13T02:05:01;9.7;99.9
49901;DHT22;35789;48.414;12.768;2022-09-13T02:10:02;9.8;99.9
49901;DHT22;35789;48.414;12.768;2022-09-13T02:15:01;9.7;99.9
49901;DHT22;35789;48.414;12.768;2022-09-13T02:20:00;9.7;99.9
49901;DHT22;35789;48.414;12.768;2022-09-13T02:25:01;9.7;99.9
49901;DHT22;35789;48.414;12.768;2022-09-13T02:30:01;9.7;99.9
49901;DHT22;35789;48.414;12.768;2022-09-13T02:35:00;9.7;99.9
49901;DHT22;35789;48.414;12.768;2022-09-13T02:40:01;9.7;99.9
49901;DHT22;35789;48.414;12.768;2022-09-13T02:45:00;9.6;99.9
49901;DHT22;35789;48.414;12.768;2022-09-13T02:50:04;9.6;99.9
49901;DHT22;35789;48.414;12.768;2022-09-13T02:55:02;9.4;99.9
49901;DHT22;35789;48.414;12.768;2022-09-13T03:00:00;9.6;99.9
49901;DHT22;35789;48.414;12.768;2022-09-13T03:05:00;9.6;99.9
49901;DHT22;35789;48.414;12.768;2022-09-13T03:10:01;9.7;99.9
49901;DHT22;35789;48.414;12.768;2022-09-13T03:15:03;9.7;99.9
49901;DHT22;35789;48.414;12.768;2022-09-13T03:20:02;9.6;99.9
49901;DHT22;35789;48.414;12.768;2022-09-13T03:25:02;9.6;99.9
49901;DHT22;35789;48.414;12.768;2022-09-13T03:30:02;9.6;99.9
49901;DHT22;35789;48.414;12.768;2022-09-13T03:35:02;9.5;99.9
49901;DHT22;35789;48.414;12.768;2022-09-13T03:40:02;9.6;99.9
49901;DHT22;35789;48.414;12.768;2022-09-13T03:45:00;9.6;99.9
49901;DHT22;35789;48.414;12.768;2022-09-13T03:50:00;9.4;99.9
49901;DHT22;35789;48.414;12.768;2022-09-13T03:55:00;9.4;99.9
49901;DHT22;35789;48.414;12.768;2022-09-13T04:00:00;9.5;99.9
49901;DHT22;35789;48.414;12.768;2022-09-13T04:05:00;9.4;99.9
49901;DHT22;35789;48.414;12.768;2022-09-13T04:10:00;9.2;99.9
49901;DHT22;35789;48.414;12.768;2022-09-13T04:15:00;9.3;99.9
49901;DHT22;35789;48.414;12.768;2022-09-13T04:20:00;9.1;99.9
49901;DHT22;35789;48.414;12.768;2022-09-13T04:25:00;9.0;99.9
49901;DHT22;35789;48.414;12.768;2022-09-13T04:30:00;9.0;99.9
49901;DHT22;35789;48.414;12.768;2022-09-13T04:35:00;9.0;99.9
49901;DHT22;35789;48.414;12.768;2022-09-13T04:40:00;9.0;99.9
49901;DHT22;35789;48.414;12.768;2022-09-13T04:45:00;9.0;99.9
49901;DHT22;35789;48.414;12.768;2022-09-13T04:50:00;9.0;99.9
49901;DHT22;35789;48.414;12.768;2022-09-13T04:55:00;unavailable;unavailable
49901;DHT22;35789;48.414;12.768;2022-09-13T05:00:00;9.1;99.9
49901;DHT22;35789;48.414;12.768;2022-09-13T05:05:00;9.1;99.9
49901;DHT22;35789;48.414;12.768;2022-09-13T05:10:00;9.0;99.9
49901;DHT22;35789;48.414;12.768;2022-09-13T05:15:00;9.1;99.9
49901;DHT22;35789;48.414;12.768;2022-09-13T05:20:00;9.1;99.9
49901;DHT22;35789;48.414;12.768;2022-09-13T05:25:00;9.0;99.9
49901;DHT22;35789;48.414;12.768;2022-09-13T05:30:00;9.0;99.9
49901;DHT22;35789;48.414;12.768;2022-09-13T05:35:00;8.9;99.9
49901;DHT22;35789;48.414;12.768;2022-09-13T05:40:00;9.0;99.9
49901;DHT22;35789;48.414;12.768;2022-09-13T05:45:00;9.1;99.9
49901;DHT22;35789;48.414;12.768;2022-09-13T05:50:00;9.3;99.9
49901;DHT22;35789;48.414;12.768;2022-09-13T05:55:00;9.5;99.9
49901;DHT22;35789;48.414;12.768;2022-09-13T06:00:00;9.5;99.9
49901;DHT22;35789;48.414;12.768;2022-09-13T06:05:00;9.7;99.9
49901;DHT22;35789;48.414;12.768;2022-09-13T06:10:00;9.8;99.9
49901;DHT22;35789;48.414;12.768;2022-09-13T06:15:00;10.0;99.9
49901;DHT22;35789;48.414;12.768;2022-09-13T06:20:00;10.1;99.9
49901;DHT22;35789;48.414;12.768;2022-09-13T06:25:00;10.2;99.9
49901;DHT22;35789;48.414;12.768;2022-09-13T06:30:00;10.3;99.9
49901;DHT22;35789;48.414;12.768;2022-09-13T06:35:00;10.4;99.9
49901;DHT22;35789;48.414;12.768;2022-09-13T06:40:00;10.5;99.9
49901;DHT22;35789;48.414;12.768;2022-09-13T06:45:00;10.6;99.9
49901;DHT22;35789;48.414;12.768;2022-09-13T06:50:00;10.8;99.9
49901;DHT22;35789;48.414;12.768;2022-09-13T06:55:00;10.9;99.9
49901;DHT22;35789;48.414;12.768;2022-09-13T07:00:00;11.0;99.9
49901;DHT22;35789;48.414;12.768;2022-09-13T07:05:00;11.3;99.9
49901;DHT22;35789;48.414;12.768;2022-09-13T07:10:00;11.5;99.9
49901;DHT22;35789;48.414;12.768;2022-09-13T07:15:00;11.7;99.9
49901;DHT22;35789;48.414;12.768;2022-09-13T07:20:00;11.8;99.9
49901;DHT22;35789;48.414;12.768;2022-09-13T07:25:00;11.9;99.9
49901;DHT22;35789;48.414;12.768;2022-09-13T07:30:00;12.2;99.9
49901;DHT22;35789;48.414;12.768;2022-09-13T07:35:00;12.5;99.9
49901;DHT22;35789;48.414;12.768;2022-09-13T07:40:00;12.5;99.9
49901;DHT22;35789;48.414;12.768;2022-09-13T07:45:00;12.5;99.9
49901;DHT22;35789;48.414;12.768;2022-09-13T07:50:00;12.6;99.9
49901;DHT22;35789;48.414;12.768;2022-09-13T07:55:00;12.6;99.9
49901;DHT22;35789;48.414;12.768;2022-09-13T08:00:00;12.8;99.9
49901;DHT22;35789;48.414;12.768;2022-09-13T08:05:00;12.9;99.9
49901;DHT22;35789;48.414;12.768;2022-09-13T08:10:00;13.0;99.9
49901;DHT22;35789;48.414;12.768;2022-09-13T08:15:00;13.2;99.9
49901;DHT22;35789;48.414;12.768;2022-09-13T08:20:00;13.5;99.9
49901;DHT22;35789;48.414;12.768;2022-09-13T08:25:00;13.7;99.9
49901;DHT22;35789;48.414;12.768;2022-09-13T08:30:00;13.9;99.9
49901;DHT22;35789;48.414;12.768;2022-09-13T08:35:00;13.9;99.9
49901;DHT22;35789;48.414;12.768;2022-09-13T08:40:00;14.1;99.9
49901;DHT22;35789;48.414;12.768;2022-09-13T08:45:00;14.2;99.9
49901;DHT22;35789;48.414;12.768;2022-09-13T08:50:03;14.5;99.9
49901;DHT22;35789;48.414;12.768;2022-09-13T08:55:01;14.7;99.9
49901;DHT22;35789;48.414;12.768;2022-09-13T09:00:02;14.9;99.9
49901;DHT22;35789;48.414;12.768;2022-09-13T09:05:01;15.0;99.9
49901;DHT22;35789;48.414;12.768;2022-09-13T09:10:01;15.3;99.9
49901;DHT22;35789;48.414;12.768;2022-09-13T09:15:02;15.6;99.9
49901;DHT22;35789;48.414;12.768;2022-09-13T09:20:02;15.6;99.9
49901;DHT22;35789;48.414;12.768;2022-09-13T09:25:00;16.1;99.9
49901;DHT22;35789;48.414;12.768;2022-09-13T09:30:00;15.9;99.9
49901;DHT22;35789;48.414;12.768;2022-09-13T09:35:03;16.2;99.9
49901;DHT22;35789;48.414;12.768;2022-09-13T09:40:00;16.3;99.9
49901;DHT22;35789;48.414;12.768;2022-09-13T09:45:02;16.7;99.9
49901;DHT22;35789;48.414;12.768;2022-09-13T09:50:01;16.5;99.9
49901;DHT22;35789;48.414;12.768;2022-09-13T09:55:03;17.1;99.9
49901;DHT22;35789;48.414;12.768;2022-09-13T10:00:07;17.0;99.9
49901;DHT22;35789;48.414;12.768;2022-09-13T10:05:00;17.1;99.9
49901;DHT22;35789;48.414;12.768;2022-09-13T10:10:01;16.9;99.9
49901;DHT22;35789;48.414;12.768;2022-09-13T10:15:05;17.1;99.9
49901;DHT22;35789;48.414;12.768;2022-09-13T10:20:00;17.2;99.9
49901;DHT22;35789;48.414;12.768;2022-09-13T10:30:00;17.8;99.9
49901;DHT22;35789;48.414;12.768;2022-09-13T10:35:02;17.8;99.9
49901;DHT22;35789;48.414;12.768;2022-09-13T10:40:01;17.9;99.9
49901;DHT22;35789;48.414;12.768;2022-09-13T10:45:00;17.9;99.9
49901;DHT22;35789;48.414;12.768;2022-09-13T11:00:00;18.0;99.9
49901;DHT22;35789;48.414;12.768;2022-09-13T11:05:03;18.1;99.9
49901;DHT22;35789;48.414;12.768;2022-09-13T11:10:01;18.2;99.9
49901;DHT22;35789;48.414;12.768;2022-09-13T11:15:01;18.4;99.9
49901;DHT22;35789;48.414;12.768;2022-09-13T11:20:03;19.0;99.9
49901;DHT22;35789;48.414;12.768;2022-09-13T11:25:08;19.1;99.9
49901;DHT22;35789;48.414;12.768;2022-09-13T11:30:03;19.2;99.9
49901;DHT22;35789;48.414;12.768;2022-09-13T11:35:11;19.4;99.9
49901;DHT22;35789;48.414;12.768;2022-09-13T11:40:18;19.7;99.9
49901;DHT22;35789;48.414;12.768;2022-09-13T11:45:07;19.9;99.9
49901;DHT22;35789;48.414;12.768;2022-09-13T11:50:02;20.1;99.9
49901;DHT22;35789;48.414;12.768;2022-09-13T11:55:02;19.9;99.9
49901;DHT22;35789;48.414;12.768;2022-09-13T12:00:02;19.7;99.9
49901;DHT22;35789;48.414;12.768;2022-09-13T12:05:01;19.7;99.9
49901;DHT22;35789;48.414;12.768;2022-09-13T12:10:02;19.5;99.9
49901;DHT22;35789;48.414;12.768;2022-09-13T12:15:02;19.9;99.9
49901;DHT22;35789;48.414;12.768;2022-09-13T12:20:00;20.1;99.9
49901;DHT22;35789;48.414;12.768;2022-09-13T12:25:02;19.8;99.9
49901;DHT22;35789;48.414;12.768;2022-09-13T12:30:04;19.5;99.9
49901;DHT22;35789;48.414;12.768;2022-09-13T12:35:01;19.3;99.9
49901;DHT22;35789;48.414;12.768;2022-09-13T12:40:07;19.3;99.9
49901;DHT22;35789;48.414;12.768;2022-09-13T12:50:05;19.3;99.9
49901;DHT22;35789;48.414;12.768;2022-09-13T13:00:09;19.5;99.9
49901;DHT22;35789;48.414;12.768;2022-09-13T13:05:02;19.4;99.9
49901;DHT22;35789;48.414;12.768;2022-09-13T13:10:00;19.2;99.9
49901;DHT22;35789;48.414;12.768;2022-09-13T13:15:00;19.0;99.9
49901;DHT22;35789;48.414;12.768;2022-09-13T13:20:00;19.0;99.9
49901;DHT22;35789;48.414;12.768;2022-09-13T13:25:08;18.9;99.9
49901;DHT22;35789;48.414;12.768;2022-09-13T13:35:07;19.0;99.9
49901;DHT22;35789;48.414;12.768;2022-09-13T13:45:04;19.2;99.9
49901;DHT22;35789;48.414;12.768;2022-09-13T13:50:07;19.2;99.9
49901;DHT22;35789;48.414;12.768;2022-09-13T13:55:00;19.2;99.9
49901;DHT22;35789;48.414;12.768;2022-09-13T14:00:04;19.4;99.9
49901;DHT22;35789;48.414;12.768;2022-09-13T14:05:06;19.3;99.9
49901;DHT22;35789;48.414;12.768;2022-09-13T14:10:00;19.1;99.9
49901;DHT22;35789;48.414;12.768;2022-09-13T14:15:04;18.9;99.9
49901;DHT22;35789;48.414;12.768;2022-09-13T14:20:02;18.8;99.9
49901;DHT22;35789;48.414;12.768;2022-09-13T14:30:00;18.6;99.9
49901;DHT22;35789;48.414;12.768;2022-09-13T14:35:00;18.6;99.9
49901;DHT22;35789;48.414;12.768;2022-09-13T14:40:00;18.5;99.9
49901;DHT22;35789;48.414;12.768;2022-09-13T14:45:00;18.6;99.9
49901;DHT22;35789;48.414;12.768;2022-09-13T14:50:00;18.7;99.9
49901;DHT22;35789;48.414;12.768;2022-09-13T14:55:00;18.7;99.9
49901;DHT22;35789;48.414;12.768;2022-09-13T15:00:01;18.9;99.9
49901;DHT22;35789;48.414;12.768;2022-09-13T15:05:00;19.0;99.9
49901;DHT22;35789;48.414;12.768;2022-09-13T15:10:04;19.0;99.9
49901;DHT22;35789;48.414;12.768;2022-09-13T15:20:02;19.1;99.9
49901;DHT22;35789;48.414;12.768;2022-09-13T15:25:00;19.0;99.9
49901;DHT22;35789;48.414;12.768;2022-09-13T15:30:00;19.0;99.9
49901;DHT22;35789;48.414;12.768;2022-09-13T15:35:00;19.0;99.9
49901;DHT22;35789;48.414;12.768;2022-09-13T15:40:06;19.0;99.9
49901;DHT22;35789;48.414;12.768;2022-09-13T15:45:00;18.9;99.9
49901;DHT22;35789;48.414;12.768;2022-09-13T15:50:00;18.8;99.9
49901;DHT22;35789;48.414;12.768;2022-09-13T15:55:00;18.7;99.9
49901;DHT22;35789;48.414;12.768;2022-09-13T16:00:00;18.7;99.9
49901;DHT22;35789;48.414;12.768;2022-09-13T16:05:00;18.7;99.9
49901;DHT22;35789;48.414;12.768;2022-09-13T16:10:00;18.7;99.9
49901;DHT22;35789;48.414;12.768;2022-09-13T16:15:00;18.7;99.9
49901;DHT22;35789;48.414;12.768;2022-09-13T16:20:00;18.6;99.9
49901;DHT22;35789;48.414;12.768;2022-09-13T16:25:00;18.6;99.9
49901;DHT22;35789;48.414;12.768;2022-09-13T16:30:00;18.4;99.9
49901;DHT22;35789;48.414;12.768;2022-09-13T16:35:00;18.3;99.9
49901;DHT22;35789;48.414;12.768;2022-09-13T16:40:00;18.2;99.9
49901;DHT22;35789;48.414;12.768;2022-09-13T16:45:00;18.2;99.9
49901;DHT22;35789;48.414;12.768;2022-09-13T16:50:00;18.1;99.9
49901;DHT22;35789;48.414;12.768;2022-09-13T16:55:00;18.0;99.9
49901;DHT22;35789;48.414;12.768;2022-09-13T17:00:00;17.9;99.9
49901;DHT22;35789;48.414;12.768;2022-09-13T17:05:00;17.8;99.9
49901;DHT22;35789;48.414;12.768;2022-09-13T17:10:00;17.7;99.9
49901;DHT22;35789;48.414;12.768;2022-09-13T17:15:00;17.7;99.9
49901;DHT22;35789;48.414;12.768;2022-09-13T17:20:00;17.6;99.9
49901;DHT22;35789;48.414;12.768;2022-09-13T17:25:00;17.6;99.9
49901;DHT22;35789;48.414;12.768;2022-09-13T17:30:00;17.6;99.9
49901;DHT22;35789;48.414;12.768;2022-09-13T17:35:00;17.5;99.9
49901;DHT22;35789;48.414;12.768;2022-09-13T17:40:00;17.5;99.9
49901;DHT22;35789;48.414;12.768;2022-09-13T17:45:00;17.4;99.9
49901;DHT22;35789;48.414;12.768;2022-09-13T17:50:00;17.4;99.9
49901;DHT22;35789;48.414;12.768;2022-09-13T17:55:00;17.4;99.9
49901;DHT22;35789;48.414;12.768;2022-09-13T18:00:00;17.3;99.9
49901;DHT22;35789;48.414;12.768;2022-09-13T18:05:00;17.3;99.9
49901;DHT22;35789;48.414;12.768;2022-09-13T18:10:00;17.3;99.9
49901;DHT22;35789;48.414;12.768;2022-09-13T18:15:00;17.3;99.9
49901;DHT22;35789;48.414;12.768;2022-09-13T18:20:00;17.2;99.9
49901;DHT22;35789;48.414;12.768;2022-09-13T18:25:00;17.2;99.9
49901;DHT22;35789;48.414;12.768;2022-09-13T18:30:00;17.2;99.9
49901;DHT22;35789;48.414;12.768;2022-09-13T18:35:00;17.1;99.9
49901;DHT22;35789;48.414;12.768;2022-09-13T18:40:00;17.1;99.9
49901;DHT22;35789;48.414;12.768;2022-09-13T18:45:00;17.1;99.9
49901;DHT22;35789;48.414;12.768;2022-09-13T18:50:00;17.0;99.9
49901;DHT22;35789;48.414;12.768;2022-09-13T18:55:00;17.0;99.9
49901;DHT22;35789;48.414;12.768;2022-09-13T19:00:00;16.8;99.9
49901;DHT22;35789;48.414;12.768;2022-09-13T19:05:00;16.8;99.9
49901;DHT22;35789;48.414;12.768;2022-09-13T19:10:00;16.7;99.9
49901;DHT22;35789;48.414;12.768;2022-09-13T19:15:00;16.6;99.9
49901;DHT22;35789;48.414;12.768;2022-09-13T19:20:00;16.5;99.9
49901;DHT22;35789;48.414;12.768;2022-09-13T19:25:00;16.5;99.9
49901;DHT22;35789;48.414;12.768;2022-09-13T19:30:00;16.5;99.9
49901;DHT22;35789;48.414;12.768;2022-09-13T19:35:00;16.5;99.9
49901;DHT22;35789;48.414;12.768;2022-09-13T19:40:00;16.5;99.9
49901;DHT22;35789;48.414;12.768;2022-09-13T19:45:00;16.4;99.9
49901;DHT22;35789;48.414;12.768;2022-09-13T19:50:00;16.3;99.9
49901;DHT22;35789;48.414;12.768;2022-09-13T19:55:00;16.3;99.9
49901;DHT22;35789;48.414;12.768;2022-09-13T20:00:00;16.3;99.9
49901;DHT22;35789;48.414;12.768;2022-09-13T20:05:00;16.3;99.9
49901;DHT22;35789;48.414;12.768;2022-09-13T20:10:00;16.2;99.9
49901;DHT22;35789;48.414;12.768;2022-09-13T20:15:00;unavailable;unavailable
49901;DHT22;35789;48.414;12.768;2022-09-13T20:20:00;16.1;99.9
49901;DHT22;35789;48.414;12.768;2022-09-13T20:25:00;16.1;99.9
49901;DHT22;35789;48.414;12.768;2022-09-13T20:30:00;16.0;99.9
49901;DHT22;35789;48.414;12.768;2022-09-13T20:35:00;16.0;99.9
49901;DHT22;35789;48.414;12.768;2022-09-13T20:40:00;15.9;99.9
49901;DHT22;35789;48.414;12.768;2022-09-13T20:45:00;15.8;99.9
49901;DHT22;35789;48.414;12.768;2022-09-13T20:50:00;15.8;99.9
49901;DHT22;35789;48.414;12.768;2022-09-13T20:55:00;15.7;99.9
49901;DHT22;35789;48.414;12.768;2022-09-13T21:00:00;15.7;99.9
49901;DHT22;35789;48.414;12.768;2022-09-13T21:05:00;15.7;99.9
49901;DHT22;35789;48.414;12.768;2022-09-13T21:10:00;15.6;99.9
49901;DHT22;35789;48.414;12.768;2022-09-13T21:15:00;15.5;99.9
49901;DHT22;35789;48.414;12.768;2022-09-13T21:20:00;15.5;99.9
49901;DHT22;35789;48.414;12.768;2022-09-13T21:25:00;15.4;99.9
49901;DHT22;35789;48.414;12.768;2022-09-13T21:30:00;15.3;99.9
49901;DHT22;35789;48.414;12.768;2022-09-13T21:35:00;15.3;99.9
49901;DHT22;35789;48.414;12.768;2022-09-13T21:40:00;15.2;99.9
49901;DHT22;35789;48.414;12.768;2022-09-13T21:45:00;15.1;99.9
49901;DHT22;35789;48.414;12.768;2022-09-13T21:50:00;15.1;99.9
49901;DHT22;35789;48.414;12.768;2022-09-13T21:55:00;15.0;99.9
49901;DHT22;35789;48.414;12.768;2022-09-13T22:00:00;15.0;99.9
49901;DHT22;35789;48.414;12.768;2022-09-13T22:05:00;15.0;99.9
49901;DHT22;35789;48.414;12.768;2022-09-13T22:10:00;15.0;99.9
49901;DHT22;35789;48.414;12.768;2022-09-13T22:15:00;15.0;99.9
49901;DHT22;35789;48.414;12.768;2022-09-13T22:20:00;15.0;99.9
49901;DHT22;35789;48.414;12.768;2022-09-13T22:25:00;14.9;99.9
49901;DHT22;35789;48.414;12.768;2022-09-13T22:30:00;15.0;99.9
49901;DHT22;35789;48.414;12.768;2022-09-13T22:35:00;15.1;99.9
49901;DHT22;35789;48.414;12.768;2022-09-13T22:40:00;15.0;99.9
49901;DHT22;35789;48.414;12.768;2022-09-13T22:45:00;15.0;99.9
49901;DHT22;35789;48.414;12.768;2022-09-13T22:50:00;14.9;99.9
49901;DHT22;35789;48.414;12.768;2022-09-13T22:55:00;14.8;99.9
49901;DHT22;35789;48.414;12.768;2022-09-13T23:00:00;14.6;99.9
49901;DHT22;35789;48.414;12.768;2022-09-13T23:05:00;14.7;99.9
49901;DHT22;35789;48.414;12.768;2022-09-13T23:10:00;14.6;99.9
49901;DHT22;35789;48.414;12.768;2022-09-13T23:15:00;14.5;99.9
49901;DHT22;35789;48.414;12.768;2022-09-13T23:20:00;14.4;99.9
49901;DHT22;35789;48.414;12.768;2022-09-13T23:25:00;14.6;99.9
49901;DHT22;35789;48.414;12.768;2022-09-13T23:30:00;14.6;99.9
49901;DHT22;35789;48.414;12.768;2022-09-13T23:35:00;14.6;99.9
49901;DHT22;35789;48.414;12.768;2022-09-13T23:40:00;14.6;99.9
49901;DHT22;35789;48.414;12.768;2022-09-13T23:45:00;14.5;99.9
49901;DHT22;35789;48.414;12.768;2022-09-13T23:50:00;14.5;99.9
49901;DHT22;35789;48.414;12.768;2022-09-13T23:55:00;14.5;99.9
